Time;durP1;ratioP1;P1;durP2;ratioP2;P2;SDS_P1;SDS_P2;PMS_P1;PMS_P2;Temp;Humidity;BMP_temperature;BMP_pressure;BME280_temperature;BME280_humidity;BME280_pressure;Samples;Min_cycle;Max_cycle;Signal;HPM_P1;HPM_P2
2024/01/01 08:36:54;;;;;;;;;;;;;;;0.39;100.00;99869.44;1812969;78;20084;-74
2024/01/01 08:39:24;;;;;;;;;;;;;;;0.40;100.00;99874.50;1804689;78;20108;-70
2024/01/01 08:41:51;;;;;;;;;;;;;;;0.41;100.00;99870.22;1817860;78;20101;-66
2024/01/01 08:44:17;;;;;;;;;;;;;;;0.40;100.00;99862.16;1812445;78;20090;-67
2024/01/01 08:46:43;;;;;;;;;;;;;;;0.40;100.00;99859.59;1820679;78;20569;-70
2024/01/01 08:49:10;;;;;;;;;;;;;;;0.41;100.00;99858.69;1816870;78;20134;-68
2024/01/01 08:51:36;;;;;;;;;;;;;;;0.41;100.00;99855.70;1815554;78;20438;-68
2024/01/01 08:54:16;;;;;;;;;;;;;;;0.42;100.00;99853.55;1812195;78;20159;-70
2024/01/01 08:56:43;;;;;;;;;;;;;;;0.45;100.00;99845.81;1817463;78;20184;-70
2024/01/01 08:59:11;;;;;;;;;;;;;;;0.49;100.00;99842.76;1794726;79;20100;-67
2024/01/01 09:01:38;;;;;;;;;;;;;;;0.48;100.00;99840.63;1810218;78;20421;-75
2024/01/01 09:04:04;;;;;;;;;;;;;;;0.48;100.00;99832.95;1816400;78;20536;-73
2024/01/01 09:06:31;;;;;;;;;;;;;;;0.51;100.00;99828.20;1813357;78;20467;-69
2024/01/01 09:08:57;;;;;;;;;;;;;;;0.53;100.00;99820.91;1813972;78;20107;-74
2024/01/01 09:11:24;;;;;;;;;;;;;;;0.56;100.00;99811.88;1814447;78;20215;-70
2024/01/01 09:13:51;;;;;;;;;;;;;;;0.59;100.00;99811.82;1812683;79;20400;-74
2024/01/01 09:16:18;;;;;;;;;;;;;;;0.61;100.00;99802.39;1815526;79;20128;-75
2024/01/01 09:18:45;;;;;;;;;;;;;;;0.68;100.00;99807.40;1815994;79;20126;-72
2024/01/01 10:19:01;;;;;;;;;;;;;;;1.45;100.00;99690.28;1812466;78;20128;-71
2024/01/01 10:21:29;;;;;;;;;;;;;;;1.41;100.00;99698.09;1816596;78;20372;-70
2024/01/01 10:23:56;;;;;;;;;;;;;;;1.39;100.00;99689.59;1826163;78;20105;-73
2024/01/01 10:26:23;;;;;;;;;;;;;;;1.40;100.00;99688.27;1808222;78;20123;-72
2024/01/01 10:28:49;;;;;;;;;;;;;;;1.38;100.00;99685.34;1797597;80;20433;-77
2024/01/01 10:31:15;;;;;;;;;;;;;;;1.34;100.00;99681.56;1797845;80;20096;-74
2024/01/01 10:33:42;;;;;;;;;;;;;;;1.30;100.00;99678.66;1797707;80;20164;-69
2024/01/01 10:36:09;;;;;;;;;;;;;;;1.28;100.00;99675.73;1828585;78;20101;-79
2024/01/01 10:38:40;;;;;;;;;;;;;;;1.28;100.00;99658.62;1817330;78;20108;-71
2024/01/01 10:41:07;;;;;;;;;;;;;;;1.30;100.00;99661.99;1807013;78;20159;-68
2024/01/01 10:43:43;;;;;;;;;;;;;;;1.32;100.00;99652.98;1822661;78;20523;-75
2024/01/01 10:46:11;;;;;;;;;;;;;;;1.35;100.00;99645.21;1810530;78;20121;-72
2024/01/01 10:48:41;;;;;;;;;;;;;;;1.39;100.00;99639.56;1813589;78;20167;-74
2024/01/01 10:51:24;;;;;;;;;;;;;;;1.41;100.00;99629.67;1816287;78;20109;-73
2024/01/01 10:54:22;;;;;;;;;;;;;;;1.44;100.00;99628.75;1812797;77;20447;-79
2024/01/01 10:59:37;;;;;;;;;;;;;;;1.49;100.00;99621.34;1816189;78;20155;-75
2024/01/01 11:02:04;;;;;;;;;;;;;;;1.48;100.00;99619.66;1808397;78;20135;-70
2024/01/01 11:04:31;;;;;;;;;;;;;;;1.45;100.00;99618.45;1830667;78;20148;-70
2024/01/01 11:45:14;;;;;;;;;;;;;;;1.39;100.00;99537.80;1817957;78;20118;-67
2024/01/01 11:47:41;;;;;;;;;;;;;;;1.39;100.00;99513.43;1828736;78;20424;-68
2024/01/01 11:50:08;;;;;;;;;;;;;;;1.38;100.00;99522.00;1825913;79;20090;-67
2024/01/01 11:52:35;;;;;;;;;;;;;;;1.37;100.00;99516.92;1818041;79;20138;-69
2024/01/01 11:55:01;;;;;;;;;;;;;;;1.35;100.00;99528.50;1810986;78;20091;-67
2024/01/01 11:57:29;;;;;;;;;;;;;;;1.38;100.00;99527.58;1819920;78;20125;-70
2024/01/01 11:59:56;;;;;;;;;;;;;;;1.41;100.00;99518.52;1821334;77;20094;-68
2024/01/01 12:02:22;;;;;;;;;;;;;;;1.46;100.00;99519.23;1820498;79;20535;-70
2024/01/01 12:07:28;;;;;;;;;;;;;;;1.51;100.00;99504.13;1819335;79;20118;-70
2024/01/01 12:10:08;;;;;;;;;;;;;;;1.55;100.00;99495.45;1816851;78;20146;-71
2024/01/01 12:12:35;;;;;;;;;;;;;;;1.59;100.00;99497.50;1811613;78;20117;-72
2024/01/01 12:15:11;;;;;;;;;;;;;;;1.57;100.00;99483.88;1808813;79;20380;-68
2024/01/01 12:17:43;;;;;;;;;;;;;;;1.54;100.00;99477.09;1808465;79;20401;-67
2024/01/01 12:20:12;;;;;;;;;;;;;;;1.52;100.00;99476.73;1783235;79;20375;-72
2024/01/01 12:27:42;;;;;;;;;;;;;;;1.52;100.00;99472.45;1791005;79;20410;-69
2024/01/01 12:30:08;;;;;;;;;;;;;;;1.52;100.00;99468.60;1800445;78;20098;-67
2024/01/01 12:32:35;;;;;;;;;;;;;;;1.53;100.00;99469.44;1807909;79;20157;-67
2024/01/01 12:35:03;;;;;;;;;;;;;;;1.51;100.00;99472.05;1820408;79;20094;-65
2024/01/01 12:37:31;;;;;;;;;;;;;;;1.50;100.00;99461.83;1817469;78;20129;-71
2024/01/01 12:39:58;;;;;;;;;;;;;;;1.51;100.00;99457.09;1810201;78;20157;-69
2024/01/01 12:42:24;;;;;;;;;;;;;;;1.52;100.00;99457.50;1810847;79;20203;-70
2024/01/01 12:44:56;;;;;;;;;;;;;;;1.51;100.00;99445.11;1814231;78;20225;-68
2024/01/01 12:47:22;;;;;;;;;;;;;;;1.50;100.00;99440.02;1797457;78;20120;-66
2024/01/01 12:49:48;;;;;;;;;;;;;;;1.47;100.00;99437.10;1798638;78;20123;-66
2024/01/01 12:52:15;;;;;;;;;;;;;;;1.47;100.00;99430.69;1801921;78;20143;-68
2024/01/01 12:54:42;;;;;;;;;;;;;;;1.48;100.00;99428.52;1811258;79;20133;-69
2024/01/01 12:57:09;;;;;;;;;;;;;;;1.47;100.00;99433.25;1805883;78;20454;-69
